sensor_id;sensor_type;location;lat;lon;timestamp;P1;durP1;ratioP1;P2;durP2;ratioP2
77880;SDS011;67077;50.298;18.996;2023-04-15T00:01:43;11.80;;;5.20;;
77880;SDS011;67077;50.298;18.996;2023-04-15T00:04:11;8.70;;;5.30;;
77880;SDS011;67077;50.298;18.996;2023-04-15T00:06:39;8.90;;;4.70;;
77880;SDS011;67077;50.298;18.996;2023-04-15T00:09:08;10.40;;;5.10;;
77880;SDS011;67077;50.298;18.996;2023-04-15T00:11:36;8.70;;;5.60;;
77880;SDS011;67077;50.298;18.996;2023-04-15T00:14:04;8.70;;;5.10;;
77880;SDS011;67077;50.298;18.996;2023-04-15T00:16:32;9.80;;;5.70;;
77880;SDS011;67077;50.298;18.996;2023-04-15T00:19:00;9.80;;;5.70;;
77880;SDS011;67077;50.298;18.996;2023-04-15T00:21:28;13.00;;;7.10;;
77880;SDS011;67077;50.298;18.996;2023-04-15T00:23:56;15.30;;;10.10;;
77880;SDS011;67077;50.298;18.996;2023-04-15T00:26:25;16.00;;;10.10;;
77880;SDS011;67077;50.298;18.996;2023-04-15T00:28:53;20.50;;;11.80;;
77880;SDS011;67077;50.298;18.996;2023-04-15T00:31:22;20.30;;;12.30;;
77880;SDS011;67077;50.298;18.996;2023-04-15T00:33:50;20.20;;;11.90;;
77880;SDS011;67077;50.298;18.996;2023-04-15T00:36:18;21.00;;;11.50;;
77880;SDS011;67077;50.298;18.996;2023-04-15T00:38:46;17.70;;;11.80;;
77880;SDS011;67077;50.298;18.996;2023-04-15T00:41:14;21.90;;;14.00;;
77880;SDS011;67077;50.298;18.996;2023-04-15T00:43:43;22.70;;;14.00;;
77880;SDS011;67077;50.298;18.996;2023-04-15T00:46:11;24.70;;;15.20;;
77880;SDS011;67077;50.298;18.996;2023-04-15T00:48:41;21.50;;;13.70;;
77880;SDS011;67077;50.298;18.996;2023-04-15T00:51:10;18.50;;;11.70;;
77880;SDS011;67077;50.298;18.996;2023-04-15T00:53:38;18.80;;;10.80;;
77880;SDS011;67077;50.298;18.996;2023-04-15T00:56:07;15.90;;;10.30;;
77880;SDS011;67077;50.298;18.996;2023-04-15T00:58:38;18.70;;;10.80;;
77880;SDS011;67077;50.298;18.996;2023-04-15T01:01:06;16.00;;;10.60;;
77880;SDS011;67077;50.298;18.996;2023-04-15T01:03:34;15.30;;;9.80;;
77880;SDS011;67077;50.298;18.996;2023-04-15T01:06:02;13.50;;;8.80;;
77880;SDS011;67077;50.298;18.996;2023-04-15T01:08:31;12.60;;;7.80;;
77880;SDS011;67077;50.298;18.996;2023-04-15T01:11:00;11.20;;;7.70;;
77880;SDS011;67077;50.298;18.996;2023-04-15T01:13:30;11.70;;;7.60;;
77880;SDS011;67077;50.298;18.996;2023-04-15T01:16:00;12.90;;;8.20;;
77880;SDS011;67077;50.298;18.996;2023-04-15T01:18:29;12.30;;;8.40;;
77880;SDS011;67077;50.298;18.996;2023-04-15T01:20:59;14.90;;;9.00;;
77880;SDS011;67077;50.298;18.996;2023-04-15T01:23:29;15.20;;;8.50;;
77880;SDS011;67077;50.298;18.996;2023-04-15T01:25:57;13.50;;;8.60;;
77880;SDS011;67077;50.298;18.996;2023-04-15T01:28:26;16.30;;;8.80;;
77880;SDS011;67077;50.298;18.996;2023-04-15T01:31:05;13.50;;;9.00;;
77880;SDS011;67077;50.298;18.996;2023-04-15T01:33:34;16.30;;;9.70;;
77880;SDS011;67077;50.298;18.996;2023-04-15T01:36:03;13.40;;;8.40;;
77880;SDS011;67077;50.298;18.996;2023-04-15T01:38:43;15.10;;;8.70;;
77880;SDS011;67077;50.298;18.996;2023-04-15T01:41:12;13.40;;;8.30;;
77880;SDS011;67077;50.298;18.996;2023-04-15T01:43:40;12.90;;;8.40;;
77880;SDS011;67077;50.298;18.996;2023-04-15T01:46:08;13.70;;;8.10;;
77880;SDS011;67077;50.298;18.996;2023-04-15T01:48:37;11.90;;;7.50;;
77880;SDS011;67077;50.298;18.996;2023-04-15T01:51:05;12.50;;;7.50;;
77880;SDS011;67077;50.298;18.996;2023-04-15T01:53:33;12.40;;;7.10;;
77880;SDS011;67077;50.298;18.996;2023-04-15T01:56:01;13.00;;;6.90;;
77880;SDS011;67077;50.298;18.996;2023-04-15T01:58:29;10.00;;;6.00;;
77880;SDS011;67077;50.298;18.996;2023-04-15T02:00:57;10.20;;;6.30;;
77880;SDS011;67077;50.298;18.996;2023-04-15T02:03:25;8.90;;;5.70;;
77880;SDS011;67077;50.298;18.996;2023-04-15T02:05:55;8.20;;;5.10;;
77880;SDS011;67077;50.298;18.996;2023-04-15T02:08:24;8.80;;;5.30;;
77880;SDS011;67077;50.298;18.996;2023-04-15T02:10:52;10.40;;;5.20;;
77880;SDS011;67077;50.298;18.996;2023-04-15T02:13:20;10.10;;;5.90;;
77880;SDS011;67077;50.298;18.996;2023-04-15T02:15:48;10.70;;;5.60;;
77880;SDS011;67077;50.298;18.996;2023-04-15T02:18:17;10.50;;;5.80;;
77880;SDS011;67077;50.298;18.996;2023-04-15T02:20:45;9.90;;;6.00;;
77880;SDS011;67077;50.298;18.996;2023-04-15T02:23:13;9.90;;;6.10;;
77880;SDS011;67077;50.298;18.996;2023-04-15T02:25:42;10.10;;;6.00;;
77880;SDS011;67077;50.298;18.996;2023-04-15T02:28:10;12.30;;;6.70;;
77880;SDS011;67077;50.298;18.996;2023-04-15T02:30:38;10.40;;;6.70;;
77880;SDS011;67077;50.298;18.996;2023-04-15T02:33:07;12.20;;;7.00;;
77880;SDS011;67077;50.298;18.996;2023-04-15T02:35:35;14.40;;;7.90;;
77880;SDS011;67077;50.298;18.996;2023-04-15T02:38:06;15.10;;;7.80;;
77880;SDS011;67077;50.298;18.996;2023-04-15T02:40:34;11.80;;;7.90;;
77880;SDS011;67077;50.298;18.996;2023-04-15T02:43:03;13.00;;;7.90;;
77880;SDS011;67077;50.298;18.996;2023-04-15T02:45:33;14.40;;;8.20;;
77880;SDS011;67077;50.298;18.996;2023-04-15T02:48:01;13.70;;;7.10;;
77880;SDS011;67077;50.298;18.996;2023-04-15T02:50:32;12.50;;;7.10;;
77880;SDS011;67077;50.298;18.996;2023-04-15T02:53:00;11.20;;;6.40;;
77880;SDS011;67077;50.298;18.996;2023-04-15T02:55:29;10.30;;;6.70;;
77880;SDS011;67077;50.298;18.996;2023-04-15T02:57:57;12.80;;;7.50;;
77880;SDS011;67077;50.298;18.996;2023-04-15T03:04:26;16.20;;;8.60;;
77880;SDS011;67077;50.298;18.996;2023-04-15T03:06:56;13.50;;;7.70;;
77880;SDS011;67077;50.298;18.996;2023-04-15T03:09:24;15.70;;;8.20;;
77880;SDS011;67077;50.298;18.996;2023-04-15T03:11:53;13.00;;;7.60;;
77880;SDS011;67077;50.298;18.996;2023-04-15T03:14:21;14.30;;;7.70;;
77880;SDS011;67077;50.298;18.996;2023-04-15T03:16:49;11.80;;;6.80;;
77880;SDS011;67077;50.298;18.996;2023-04-15T03:19:18;11.30;;;6.40;;
77880;SDS011;67077;50.298;18.996;2023-04-15T03:21:47;12.10;;;6.20;;
77880;SDS011;67077;50.298;18.996;2023-04-15T03:24:15;13.70;;;6.40;;
77880;SDS011;67077;50.298;18.996;2023-04-15T03:26:43;11.50;;;5.70;;
77880;SDS011;67077;50.298;18.996;2023-04-15T03:29:11;11.70;;;6.30;;
77880;SDS011;67077;50.298;18.996;2023-04-15T03:31:39;11.80;;;6.10;;
77880;SDS011;67077;50.298;18.996;2023-04-15T03:34:11;9.70;;;5.50;;
77880;SDS011;67077;50.298;18.996;2023-04-15T03:36:39;9.80;;;6.00;;
77880;SDS011;67077;50.298;18.996;2023-04-15T03:39:07;10.60;;;5.40;;
77880;SDS011;67077;50.298;18.996;2023-04-15T03:41:35;11.30;;;5.60;;
77880;SDS011;67077;50.298;18.996;2023-04-15T03:44:03;10.40;;;5.40;;
77880;SDS011;67077;50.298;18.996;2023-04-15T03:46:31;8.10;;;5.00;;
77880;SDS011;67077;50.298;18.996;2023-04-15T03:48:59;7.10;;;4.50;;
77880;SDS011;67077;50.298;18.996;2023-04-15T03:51:29;9.10;;;4.90;;
77880;SDS011;67077;50.298;18.996;2023-04-15T03:53:58;11.00;;;4.70;;
77880;SDS011;67077;50.298;18.996;2023-04-15T03:56:26;9.00;;;4.60;;
77880;SDS011;67077;50.298;18.996;2023-04-15T03:58:54;8.40;;;4.70;;
77880;SDS011;67077;50.298;18.996;2023-04-15T04:01:22;9.70;;;4.90;;
77880;SDS011;67077;50.298;18.996;2023-04-15T04:03:50;10.90;;;4.90;;
77880;SDS011;67077;50.298;18.996;2023-04-15T04:06:18;9.80;;;4.90;;
77880;SDS011;67077;50.298;18.996;2023-04-15T04:08:46;14.20;;;6.10;;
77880;SDS011;67077;50.298;18.996;2023-04-15T04:11:14;18.00;;;7.80;;
77880;SDS011;67077;50.298;18.996;2023-04-15T04:13:42;14.30;;;7.30;;
77880;SDS011;67077;50.298;18.996;2023-04-15T04:16:10;15.60;;;8.00;;
77880;SDS011;67077;50.298;18.996;2023-04-15T04:18:38;16.00;;;7.30;;
77880;SDS011;67077;50.298;18.996;2023-04-15T04:21:06;11.60;;;6.30;;
77880;SDS011;67077;50.298;18.996;2023-04-15T04:23:34;13.90;;;6.00;;
77880;SDS011;67077;50.298;18.996;2023-04-15T04:26:02;13.50;;;6.20;;
77880;SDS011;67077;50.298;18.996;2023-04-15T04:28:30;10.10;;;6.20;;
77880;SDS011;67077;50.298;18.996;2023-04-15T04:30:58;18.00;;;6.90;;
77880;SDS011;67077;50.298;18.996;2023-04-15T04:33:26;18.40;;;7.10;;
77880;SDS011;67077;50.298;18.996;2023-04-15T04:35:54;13.80;;;6.80;;
77880;SDS011;67077;50.298;18.996;2023-04-15T04:38:22;15.00;;;7.40;;
77880;SDS011;67077;50.298;18.996;2023-04-15T04:40:50;14.00;;;7.40;;
77880;SDS011;67077;50.298;18.996;2023-04-15T04:43:18;14.50;;;7.80;;
77880;SDS011;67077;50.298;18.996;2023-04-15T04:45:46;13.10;;;7.00;;
77880;SDS011;67077;50.298;18.996;2023-04-15T04:48:14;13.00;;;7.30;;
77880;SDS011;67077;50.298;18.996;2023-04-15T04:50:42;13.80;;;7.10;;
77880;SDS011;67077;50.298;18.996;2023-04-15T04:53:12;13.50;;;7.40;;
77880;SDS011;67077;50.298;18.996;2023-04-15T04:55:40;15.40;;;7.80;;
77880;SDS011;67077;50.298;18.996;2023-04-15T04:58:08;12.90;;;7.80;;
77880;SDS011;67077;50.298;18.996;2023-04-15T05:00:36;13.40;;;7.80;;
77880;SDS011;67077;50.298;18.996;2023-04-15T05:03:05;15.00;;;8.20;;
77880;SDS011;67077;50.298;18.996;2023-04-15T05:05:33;19.10;;;8.10;;
77880;SDS011;67077;50.298;18.996;2023-04-15T05:08:03;16.80;;;8.60;;
77880;SDS011;67077;50.298;18.996;2023-04-15T05:10:32;17.00;;;8.90;;
77880;SDS011;67077;50.298;18.996;2023-04-15T05:13:00;14.70;;;8.20;;
77880;SDS011;67077;50.298;18.996;2023-04-15T05:15:28;15.70;;;8.50;;
77880;SDS011;67077;50.298;18.996;2023-04-15T05:17:56;15.00;;;8.10;;
77880;SDS011;67077;50.298;18.996;2023-04-15T05:20:24;16.30;;;8.80;;
77880;SDS011;67077;50.298;18.996;2023-04-15T05:22:52;15.90;;;8.70;;
77880;SDS011;67077;50.298;18.996;2023-04-15T05:25:20;20.20;;;8.80;;
77880;SDS011;67077;50.298;18.996;2023-04-15T05:27:48;19.00;;;9.50;;
77880;SDS011;67077;50.298;18.996;2023-04-15T05:30:17;22.20;;;11.10;;
77880;SDS011;67077;50.298;18.996;2023-04-15T05:32:45;18.40;;;10.20;;
77880;SDS011;67077;50.298;18.996;2023-04-15T05:35:13;20.40;;;11.50;;
77880;SDS011;67077;50.298;18.996;2023-04-15T05:37:41;22.00;;;11.60;;
77880;SDS011;67077;50.298;18.996;2023-04-15T05:40:09;23.00;;;11.20;;
77880;SDS011;67077;50.298;18.996;2023-04-15T05:42:37;22.50;;;11.00;;
77880;SDS011;67077;50.298;18.996;2023-04-15T05:45:05;19.40;;;11.30;;
77880;SDS011;67077;50.298;18.996;2023-04-15T05:47:35;22.20;;;11.20;;
77880;SDS011;67077;50.298;18.996;2023-04-15T05:50:06;22.50;;;11.30;;
77880;SDS011;67077;50.298;18.996;2023-04-15T05:52:34;19.60;;;10.80;;
77880;SDS011;67077;50.298;18.996;2023-04-15T05:55:05;22.60;;;11.60;;
77880;SDS011;67077;50.298;18.996;2023-04-15T05:57:33;22.30;;;12.30;;
77880;SDS011;67077;50.298;18.996;2023-04-15T06:00:01;22.50;;;11.30;;
77880;SDS011;67077;50.298;18.996;2023-04-15T06:02:31;23.60;;;12.60;;
77880;SDS011;67077;50.298;18.996;2023-04-15T06:04:59;23.70;;;12.80;;
77880;SDS011;67077;50.298;18.996;2023-04-15T06:07:27;24.00;;;12.80;;
77880;SDS011;67077;50.298;18.996;2023-04-15T06:09:55;21.40;;;12.10;;
77880;SDS011;67077;50.298;18.996;2023-04-15T06:12:23;24.90;;;12.10;;
77880;SDS011;67077;50.298;18.996;2023-04-15T06:14:51;26.70;;;12.60;;
77880;SDS011;67077;50.298;18.996;2023-04-15T06:17:19;26.50;;;13.70;;
77880;SDS011;67077;50.298;18.996;2023-04-15T06:19:47;31.70;;;15.00;;
77880;SDS011;67077;50.298;18.996;2023-04-15T06:22:16;32.80;;;16.80;;
77880;SDS011;67077;50.298;18.996;2023-04-15T06:24:44;30.00;;;15.20;;
77880;SDS011;67077;50.298;18.996;2023-04-15T06:27:12;31.20;;;14.90;;
77880;SDS011;67077;50.298;18.996;2023-04-15T06:29:40;28.60;;;15.00;;
77880;SDS011;67077;50.298;18.996;2023-04-15T06:32:09;26.90;;;14.00;;
77880;SDS011;67077;50.298;18.996;2023-04-15T06:34:38;28.60;;;14.40;;
77880;SDS011;67077;50.298;18.996;2023-04-15T06:37:06;27.40;;;14.50;;
77880;SDS011;67077;50.298;18.996;2023-04-15T06:39:36;28.50;;;15.10;;
77880;SDS011;67077;50.298;18.996;2023-04-15T06:42:04;28.60;;;13.60;;
77880;SDS011;67077;50.298;18.996;2023-04-15T06:44:33;27.40;;;13.40;;
77880;SDS011;67077;50.298;18.996;2023-04-15T06:47:01;25.80;;;14.60;;
77880;SDS011;67077;50.298;18.996;2023-04-15T06:49:30;27.20;;;14.60;;
77880;SDS011;67077;50.298;18.996;2023-04-15T06:51:58;26.10;;;13.90;;
77880;SDS011;67077;50.298;18.996;2023-04-15T06:54:27;26.30;;;14.50;;
77880;SDS011;67077;50.298;18.996;2023-04-15T06:56:55;24.70;;;14.20;;
77880;SDS011;67077;50.298;18.996;2023-04-15T06:59:23;27.00;;;15.40;;
77880;SDS011;67077;50.298;18.996;2023-04-15T07:01:50;27.60;;;15.60;;
77880;SDS011;67077;50.298;18.996;2023-04-15T07:04:18;30.00;;;16.10;;
77880;SDS011;67077;50.298;18.996;2023-04-15T07:06:47;31.60;;;15.90;;
77880;SDS011;67077;50.298;18.996;2023-04-15T07:09:15;29.60;;;15.80;;
77880;SDS011;67077;50.298;18.996;2023-04-15T07:11:43;27.30;;;14.50;;
77880;SDS011;67077;50.298;18.996;2023-04-15T07:14:11;26.90;;;14.20;;
77880;SDS011;67077;50.298;18.996;2023-04-15T07:16:39;23.20;;;12.80;;
77880;SDS011;67077;50.298;18.996;2023-04-15T07:19:07;23.20;;;13.30;;
77880;SDS011;67077;50.298;18.996;2023-04-15T07:21:35;23.10;;;13.10;;
77880;SDS011;67077;50.298;18.996;2023-04-15T07:24:04;23.00;;;12.70;;
77880;SDS011;67077;50.298;18.996;2023-04-15T07:26:32;22.00;;;12.60;;
77880;SDS011;67077;50.298;18.996;2023-04-15T07:29:00;21.80;;;12.10;;
77880;SDS011;67077;50.298;18.996;2023-04-15T07:31:28;22.90;;;12.00;;
77880;SDS011;67077;50.298;18.996;2023-04-15T07:33:57;19.70;;;11.00;;
77880;SDS011;67077;50.298;18.996;2023-04-15T07:36:26;20.40;;;11.20;;
77880;SDS011;67077;50.298;18.996;2023-04-15T07:38:55;19.30;;;11.00;;
77880;SDS011;67077;50.298;18.996;2023-04-15T07:41:24;18.70;;;10.60;;
77880;SDS011;67077;50.298;18.996;2023-04-15T07:43:53;19.80;;;11.00;;
77880;SDS011;67077;50.298;18.996;2023-04-15T07:46:22;16.40;;;9.30;;
77880;SDS011;67077;50.298;18.996;2023-04-15T07:48:51;16.40;;;8.90;;
77880;SDS011;67077;50.298;18.996;2023-04-15T07:51:20;16.50;;;9.20;;
77880;SDS011;67077;50.298;18.996;2023-04-15T07:53:48;17.20;;;9.70;;
77880;SDS011;67077;50.298;18.996;2023-04-15T07:56:19;16.20;;;9.00;;
77880;SDS011;67077;50.298;18.996;2023-04-15T07:58:48;13.30;;;8.10;;
77880;SDS011;67077;50.298;18.996;2023-04-15T08:01:16;16.40;;;8.70;;
77880;SDS011;67077;50.298;18.996;2023-04-15T08:03:44;15.60;;;8.80;;
77880;SDS011;67077;50.298;18.996;2023-04-15T08:06:12;14.10;;;8.60;;
77880;SDS011;67077;50.298;18.996;2023-04-15T08:08:40;18.00;;;9.30;;
77880;SDS011;67077;50.298;18.996;2023-04-15T08:11:09;17.90;;;9.20;;
77880;SDS011;67077;50.298;18.996;2023-04-15T08:13:37;18.00;;;9.40;;
77880;SDS011;67077;50.298;18.996;2023-04-15T08:16:16;13.70;;;8.50;;
77880;SDS011;67077;50.298;18.996;2023-04-15T08:18:46;14.40;;;7.70;;
77880;SDS011;67077;50.298;18.996;2023-04-15T08:21:16;12.70;;;7.30;;
77880;SDS011;67077;50.298;18.996;2023-04-15T08:23:48;12.30;;;6.70;;
77880;SDS011;67077;50.298;18.996;2023-04-15T08:26:18;13.00;;;7.30;;
77880;SDS011;67077;50.298;18.996;2023-04-15T08:28:47;12.40;;;6.80;;
77880;SDS011;67077;50.298;18.996;2023-04-15T08:31:17;13.60;;;7.20;;
77880;SDS011;67077;50.298;18.996;2023-04-15T08:33:46;14.00;;;6.70;;
77880;SDS011;67077;50.298;18.996;2023-04-15T08:36:14;12.70;;;7.00;;
77880;SDS011;67077;50.298;18.996;2023-04-15T08:38:43;10.00;;;5.40;;
77880;SDS011;67077;50.298;18.996;2023-04-15T08:41:16;8.40;;;5.10;;
77880;SDS011;67077;50.298;18.996;2023-04-15T08:43:53;9.80;;;4.80;;
77880;SDS011;67077;50.298;18.996;2023-04-15T08:46:25;10.10;;;5.10;;
77880;SDS011;67077;50.298;18.996;2023-04-15T08:48:55;11.80;;;6.20;;
77880;SDS011;67077;50.298;18.996;2023-04-15T08:51:25;8.50;;;4.80;;
77880;SDS011;67077;50.298;18.996;2023-04-15T08:53:54;8.80;;;4.70;;
77880;SDS011;67077;50.298;18.996;2023-04-15T08:56:23;7.90;;;4.50;;
77880;SDS011;67077;50.298;18.996;2023-04-15T08:58:54;7.60;;;4.30;;
77880;SDS011;67077;50.298;18.996;2023-04-15T09:01:22;7.20;;;3.90;;
77880;SDS011;67077;50.298;18.996;2023-04-15T09:03:55;6.50;;;3.80;;
77880;SDS011;67077;50.298;18.996;2023-04-15T09:06:26;7.80;;;4.40;;
77880;SDS011;67077;50.298;18.996;2023-04-15T09:09:08;8.00;;;3.90;;
77880;SDS011;67077;50.298;18.996;2023-04-15T09:11:39;7.10;;;4.20;;
77880;SDS011;67077;50.298;18.996;2023-04-15T09:14:09;6.60;;;3.70;;
77880;SDS011;67077;50.298;18.996;2023-04-15T09:16:58;7.90;;;4.10;;
77880;SDS011;67077;50.298;18.996;2023-04-15T09:19:29;6.20;;;3.80;;
77880;SDS011;67077;50.298;18.996;2023-04-15T09:22:01;7.60;;;3.80;;
77880;SDS011;67077;50.298;18.996;2023-04-15T09:24:34;5.60;;;3.10;;
77880;SDS011;67077;50.298;18.996;2023-04-15T09:27:10;5.60;;;2.90;;
77880;SDS011;67077;50.298;18.996;2023-04-15T09:29:39;6.40;;;3.10;;
77880;SDS011;67077;50.298;18.996;2023-04-15T09:32:12;6.20;;;3.00;;
77880;SDS011;67077;50.298;18.996;2023-04-15T09:34:42;4.20;;;2.70;;
77880;SDS011;67077;50.298;18.996;2023-04-15T09:37:11;4.00;;;2.70;;
77880;SDS011;67077;50.298;18.996;2023-04-15T09:42:18;3.30;;;2.30;;
77880;SDS011;67077;50.298;18.996;2023-04-15T09:45:09;5.80;;;2.50;;
77880;SDS011;67077;50.298;18.996;2023-04-15T09:47:39;3.90;;;2.40;;
77880;SDS011;67077;50.298;18.996;2023-04-15T09:50:07;4.10;;;2.30;;
77880;SDS011;67077;50.298;18.996;2023-04-15T09:52:40;3.70;;;2.70;;
77880;SDS011;67077;50.298;18.996;2023-04-15T09:55:10;4.30;;;2.40;;
77880;SDS011;67077;50.298;18.996;2023-04-15T09:57:40;4.80;;;2.40;;
77880;SDS011;67077;50.298;18.996;2023-04-15T10:00:08;3.30;;;2.20;;
77880;SDS011;67077;50.298;18.996;2023-04-15T10:02:41;2.90;;;2.10;;
77880;SDS011;67077;50.298;18.996;2023-04-15T10:05:19;6.20;;;2.00;;
77880;SDS011;67077;50.298;18.996;2023-04-15T10:07:50;2.50;;;1.80;;
77880;SDS011;67077;50.298;18.996;2023-04-15T10:10:19;2.50;;;1.70;;
77880;SDS011;67077;50.298;18.996;2023-04-15T10:12:51;2.20;;;1.60;;
77880;SDS011;67077;50.298;18.996;2023-04-15T10:15:22;2.40;;;1.50;;
77880;SDS011;67077;50.298;18.996;2023-04-15T10:17:53;1.90;;;1.40;;
77880;SDS011;67077;50.298;18.996;2023-04-15T10:20:23;2.20;;;1.70;;
77880;SDS011;67077;50.298;18.996;2023-04-15T10:22:52;3.50;;;2.00;;
77880;SDS011;67077;50.298;18.996;2023-04-15T10:25:20;5.00;;;1.80;;
77880;SDS011;67077;50.298;18.996;2023-04-15T10:27:50;2.30;;;1.50;;
77880;SDS011;67077;50.298;18.996;2023-04-15T10:30:19;1.80;;;1.50;;
77880;SDS011;67077;50.298;18.996;2023-04-15T10:32:48;3.50;;;2.10;;
77880;SDS011;67077;50.298;18.996;2023-04-15T10:35:16;2.70;;;1.70;;
77880;SDS011;67077;50.298;18.996;2023-04-15T10:37:46;4.70;;;1.90;;
77880;SDS011;67077;50.298;18.996;2023-04-15T10:40:30;2.10;;;1.60;;
77880;SDS011;67077;50.298;18.996;2023-04-15T10:43:00;2.90;;;1.90;;
77880;SDS011;67077;50.298;18.996;2023-04-15T10:45:34;2.70;;;1.90;;
77880;SDS011;67077;50.298;18.996;2023-04-15T10:48:05;8.50;;;1.90;;
77880;SDS011;67077;50.298;18.996;2023-04-15T10:50:37;3.90;;;2.20;;
77880;SDS011;67077;50.298;18.996;2023-04-15T10:53:06;3.70;;;2.30;;
77880;SDS011;67077;50.298;18.996;2023-04-15T10:55:37;3.60;;;2.00;;
77880;SDS011;67077;50.298;18.996;2023-04-15T10:58:05;2.60;;;1.70;;
77880;SDS011;67077;50.298;18.996;2023-04-15T11:00:36;2.70;;;2.10;;
77880;SDS011;67077;50.298;18.996;2023-04-15T11:03:07;3.60;;;2.10;;
77880;SDS011;67077;50.298;18.996;2023-04-15T11:08:17;2.70;;;1.90;;
77880;SDS011;67077;50.298;18.996;2023-04-15T11:10:50;3.40;;;2.20;;
77880;SDS011;67077;50.298;18.996;2023-04-15T11:13:28;3.40;;;2.20;;
77880;SDS011;67077;50.298;18.996;2023-04-15T11:21:56;2.90;;;2.00;;
77880;SDS011;67077;50.298;18.996;2023-04-15T11:31:11;3.90;;;2.50;;
77880;SDS011;67077;50.298;18.996;2023-04-15T11:34:09;5.70;;;3.00;;
77880;SDS011;67077;50.298;18.996;2023-04-15T11:36:39;4.90;;;2.80;;
77880;SDS011;67077;50.298;18.996;2023-04-15T11:39:18;5.60;;;3.40;;
77880;SDS011;67077;50.298;18.996;2023-04-15T11:42:23;4.80;;;2.60;;
77880;SDS011;67077;50.298;18.996;2023-04-15T11:45:07;5.10;;;2.60;;
77880;SDS011;67077;50.298;18.996;2023-04-15T11:47:41;4.60;;;2.80;;
77880;SDS011;67077;50.298;18.996;2023-04-15T11:50:17;6.60;;;3.90;;
77880;SDS011;67077;50.298;18.996;2023-04-15T11:52:56;8.00;;;4.40;;
77880;SDS011;67077;50.298;18.996;2023-04-15T11:55:25;10.10;;;4.90;;
77880;SDS011;67077;50.298;18.996;2023-04-15T12:00:57;9.40;;;5.10;;
77880;SDS011;67077;50.298;18.996;2023-04-15T12:03:27;9.90;;;5.30;;
77880;SDS011;67077;50.298;18.996;2023-04-15T12:06:02;8.90;;;4.70;;
77880;SDS011;67077;50.298;18.996;2023-04-15T12:13:57;8.20;;;4.00;;
77880;SDS011;67077;50.298;18.996;2023-04-15T12:19:40;5.00;;;3.00;;
77880;SDS011;67077;50.298;18.996;2023-04-15T12:22:16;4.60;;;3.20;;
77880;SDS011;67077;50.298;18.996;2023-04-15T12:24:53;4.60;;;3.30;;
77880;SDS011;67077;50.298;18.996;2023-04-15T12:27:27;8.30;;;3.70;;
77880;SDS011;67077;50.298;18.996;2023-04-15T12:30:03;4.60;;;3.00;;
77880;SDS011;67077;50.298;18.996;2023-04-15T12:32:35;4.10;;;2.90;;
77880;SDS011;67077;50.298;18.996;2023-04-15T12:35:04;5.30;;;3.00;;
77880;SDS011;67077;50.298;18.996;2023-04-15T12:37:32;4.90;;;2.90;;
77880;SDS011;67077;50.298;18.996;2023-04-15T12:40:02;6.60;;;3.30;;
77880;SDS011;67077;50.298;18.996;2023-04-15T12:42:34;6.40;;;3.20;;
77880;SDS011;67077;50.298;18.996;2023-04-15T12:45:03;6.70;;;3.90;;
77880;SDS011;67077;50.298;18.996;2023-04-15T12:47:32;6.80;;;3.40;;
77880;SDS011;67077;50.298;18.996;2023-04-15T12:50:08;5.50;;;3.50;;
77880;SDS011;67077;50.298;18.996;2023-04-15T12:52:56;6.40;;;3.40;;
77880;SDS011;67077;50.298;18.996;2023-04-15T12:55:25;5.50;;;3.30;;
77880;SDS011;67077;50.298;18.996;2023-04-15T12:57:56;6.70;;;3.80;;
77880;SDS011;67077;50.298;18.996;2023-04-15T13:00:27;8.40;;;4.00;;
77880;SDS011;67077;50.298;18.996;2023-04-15T13:02:56;6.60;;;3.40;;
77880;SDS011;67077;50.298;18.996;2023-04-15T13:05:26;5.30;;;3.20;;
77880;SDS011;67077;50.298;18.996;2023-04-15T13:07:57;6.20;;;3.00;;
77880;SDS011;67077;50.298;18.996;2023-04-15T13:10:27;5.00;;;2.80;;
77880;SDS011;67077;50.298;18.996;2023-04-15T13:12:54;3.80;;;2.80;;
77880;SDS011;67077;50.298;18.996;2023-04-15T13:15:24;5.80;;;3.30;;
77880;SDS011;67077;50.298;18.996;2023-04-15T13:17:54;4.20;;;2.80;;
77880;SDS011;67077;50.298;18.996;2023-04-15T13:20:23;4.60;;;3.00;;
77880;SDS011;67077;50.298;18.996;2023-04-15T13:22:53;3.90;;;2.70;;
77880;SDS011;67077;50.298;18.996;2023-04-15T13:25:26;3.90;;;2.50;;
77880;SDS011;67077;50.298;18.996;2023-04-15T13:27:56;4.00;;;2.80;;
77880;SDS011;67077;50.298;18.996;2023-04-15T13:30:24;5.00;;;2.90;;
77880;SDS011;67077;50.298;18.996;2023-04-15T13:32:52;5.30;;;2.90;;
77880;SDS011;67077;50.298;18.996;2023-04-15T13:35:21;5.20;;;3.30;;
77880;SDS011;67077;50.298;18.996;2023-04-15T13:37:49;5.70;;;2.80;;
77880;SDS011;67077;50.298;18.996;2023-04-15T13:40:18;4.20;;;3.10;;
77880;SDS011;67077;50.298;18.996;2023-04-15T13:42:49;4.70;;;3.00;;
77880;SDS011;67077;50.298;18.996;2023-04-15T13:45:19;5.10;;;3.00;;
77880;SDS011;67077;50.298;18.996;2023-04-15T13:47:47;5.80;;;3.30;;
77880;SDS011;67077;50.298;18.996;2023-04-15T13:53:05;4.70;;;3.20;;
77880;SDS011;67077;50.298;18.996;2023-04-15T13:55:33;3.50;;;2.80;;
77880;SDS011;67077;50.298;18.996;2023-04-15T13:58:02;5.00;;;2.70;;
77880;SDS011;67077;50.298;18.996;2023-04-15T14:00:51;3.80;;;3.10;;
77880;SDS011;67077;50.298;18.996;2023-04-15T14:03:20;5.20;;;3.00;;
77880;SDS011;67077;50.298;18.996;2023-04-15T14:05:51;5.80;;;3.30;;
77880;SDS011;67077;50.298;18.996;2023-04-15T14:08:58;4.80;;;2.50;;
77880;SDS011;67077;50.298;18.996;2023-04-15T14:11:41;5.70;;;3.00;;
77880;SDS011;67077;50.298;18.996;2023-04-15T14:14:24;4.10;;;2.70;;
77880;SDS011;67077;50.298;18.996;2023-04-15T14:17:24;4.20;;;2.60;;
77880;SDS011;67077;50.298;18.996;2023-04-15T14:20:06;5.20;;;3.10;;
77880;SDS011;67077;50.298;18.996;2023-04-15T14:22:51;5.00;;;3.00;;
77880;SDS011;67077;50.298;18.996;2023-04-15T14:25:29;5.00;;;2.90;;
77880;SDS011;67077;50.298;18.996;2023-04-15T14:28:24;7.40;;;3.20;;
77880;SDS011;67077;50.298;18.996;2023-04-15T14:30:52;6.10;;;3.30;;
77880;SDS011;67077;50.298;18.996;2023-04-15T14:33:20;5.40;;;2.90;;
77880;SDS011;67077;50.298;18.996;2023-04-15T14:35:48;4.60;;;3.20;;
77880;SDS011;67077;50.298;18.996;2023-04-15T14:38:17;4.80;;;3.10;;
77880;SDS011;67077;50.298;18.996;2023-04-15T14:40:46;7.60;;;3.20;;
77880;SDS011;67077;50.298;18.996;2023-04-15T14:43:16;6.20;;;3.30;;
77880;SDS011;67077;50.298;18.996;2023-04-15T14:45:59;6.70;;;3.50;;
77880;SDS011;67077;50.298;18.996;2023-04-15T14:58:08;6.10;;;3.70;;
77880;SDS011;67077;50.298;18.996;2023-04-15T15:00:43;5.20;;;3.20;;
77880;SDS011;67077;50.298;18.996;2023-04-15T15:03:39;8.80;;;3.80;;
77880;SDS011;67077;50.298;18.996;2023-04-15T15:09:48;6.30;;;3.70;;
77880;SDS011;67077;50.298;18.996;2023-04-15T15:12:26;7.00;;;3.90;;
77880;SDS011;67077;50.298;18.996;2023-04-15T15:15:18;9.10;;;4.30;;
77880;SDS011;67077;50.298;18.996;2023-04-15T15:18:16;9.90;;;4.50;;
77880;SDS011;67077;50.298;18.996;2023-04-15T15:20:47;8.40;;;4.20;;
77880;SDS011;67077;50.298;18.996;2023-04-15T15:23:44;6.50;;;3.70;;
77880;SDS011;67077;50.298;18.996;2023-04-15T15:59:47;4.30;;;3.10;;
77880;SDS011;67077;50.298;18.996;2023-04-15T16:03:00;5.40;;;3.60;;
77880;SDS011;67077;50.298;18.996;2023-04-15T16:19:40;5.60;;;2.80;;
77880;SDS011;67077;50.298;18.996;2023-04-15T16:22:36;5.10;;;3.40;;
77880;SDS011;67077;50.298;18.996;2023-04-15T16:25:03;5.60;;;3.50;;